Flight Track Log - Related Links

Times and Time Zones

All times are in EDT time to prevent confusion due to time zone crossing. See the NRL951 flight status page for this flight to view local times or setup timezone preferences in your user account.

Time Position Orientation Groundspeed Altitude Reporting Facility
EDT Latitude Longitude Course Direction KTS MPH feet Rate Location/Type
Wed 05:34:37 PM 47.7167 -77.4333 131° Southeast 360 414 14,200  Level Montreal Center
Wed 05:35:00 PM 47.6239 -77.0654 134° Southeast  Level Estimated
Wed 05:35:37 PM 47.6167 -77.3667 156° South 350 403 16,000  Level Montreal Center
Wed 05:36:00 PM 47.5637 -76.9618 131° Southeast  Level FlightAware Approximate
Wed 05:36:37 PM 47.5167 -77.3167 161° South 370 426 18,500  Level Montreal Center
Wed 05:37:00 PM 47.5035 -76.8584 131° Southeast  Level FlightAware Approximate
Wed 05:37:37 PM 47.4333 -77.2000 137° Southeast 390 449 20,800  Level Montreal Center
Wed 05:38:00 PM 47.4432 -76.7553 131° Southeast  Level FlightAware Approximate
Wed 05:38:37 PM 47.3833 -77.0500 116° Southeast 420 483 22,400  Level Montreal Center
Wed 05:39:00 PM 47.3828 -76.6524 131° Southeast  Level FlightAware Approximate
Wed 05:39:37 PM 47.3167 -76.9000 123° Southeast 430 495 24,100  Level Montreal Center
Wed 05:40:00 PM 47.3223 -76.5498 131° Southeast  Level FlightAware Approximate
Wed 05:40:37 PM 47.2333 -76.7500 129° Southeast 440 506 25,900  Level Montreal Center
Wed 05:41:37 PM 47.1667 -76.5833 120° Southeast 460 529 26,900 1,150 Climbing Montreal Center
Wed 05:42:37 PM 47.1000 -76.4333 123° Southeast 470 541 28,200 1,700 Climbing Montreal Center
Wed 05:43:37 PM 47.0333 -76.2667 120° Southeast 470 541 30,300 1,350 Climbing Montreal Center
Wed 05:44:37 PM 46.9667 -76.1167 123° Southeast 460 529 30,900 350 Climbing Montreal Center
Wed 05:45:37 PM 46.8833 -75.9500 126° Southeast 460 529 31,000 50 Climbing Montreal Center
Wed 05:46:37 PM 46.8167 -75.8000 123° Southeast 450 518 31,000 -600 Level Montreal Center
Wed 05:47:37 PM 46.7500 -75.6500 123° Southeast 440 506 29,800 -1,600 Descending Montreal Center
Wed 05:48:37 PM 46.6833 -75.5000 123° Southeast 440 506 27,800 -1,800 Descending Montreal Center
Wed 05:49:37 PM 46.6000 -75.3833 136° Southeast 400 460 26,200 -2,150 Descending Montreal Center
Wed 05:50:37 PM 46.5333 -75.2667 130° Southeast 410 472 23,500 -2,350 Descending Montreal Center
Wed 05:51:37 PM 46.4500 -75.1333 132° Southeast 390 449 21,500 -1,950 Descending Montreal Center
Wed 05:52:37 PM 46.3833 -75.0500 139° Southeast 380 437 19,600 -2,100 Descending Montreal Center
Wed 05:53:37 PM 46.3167 -74.9167 126° Southeast 370 426 17,300 -2,350 Descending Montreal Center
Wed 05:54:37 PM 46.2333 -74.8000 136° Southeast 380 437 14,900 -2,150 Descending Montreal Center
Wed 05:55:37 PM 46.1667 -74.7167 139° Southeast 360 414 13,000 -1,850 Descending Montreal Center
Wed 05:56:37 PM 46.1000 -74.5833 126° Southeast 350 403 11,200 -1,650 Descending Montreal Center
Wed 05:57:37 PM 46.0333 -74.5000 139° Southeast 330 380 9,700 -1,550 Descending Montreal Center
Wed 05:58:37 PM 45.9667 -74.4167 139° Southeast 310 357 8,100 -1,550 Descending Montreal Center
Wed 05:59:37 PM 45.9167 -74.3333 131° Southeast 290 334 6,600 -1,550 Descending Montreal Center
Wed 06:00:37 PM 45.9000 -74.2167 102° East 310 357 5,000 -1,500 Descending Montreal Center
Wed 06:01:37 PM 45.8833 -74.0833 100° East 300 345 3,600 -1,000 Descending Montreal Center
Wed 06:02:37 PM 45.8667 -74.0000 106° East 290 334 3,000 -300 Descending Montreal Center
Wed 06:03:37 PM 45.8333 -73.8667 110° East 280 322 3,000 -150 Level Montreal Center
Wed 06:04:37 PM 45.7667 -73.8500 170° South 200 230 2,700 -600 Descending Montreal Center
Wed 06:05:37 PM 45.7333 -73.9000 226° Southwest 160 184 1,800 -800 Descending Montreal Center
Wed 06:06:37 PM 45.7000 -73.9333 215° Southwest 150 173 1,100 -650 Descending Montreal Center
Wed 06:07:37 PM 45.6833 -73.9833 245° Southwest 130 150 500 -400 Descending Montreal Center
Wed 06:08:37 PM 45.6500 -74.0000 199° South 120 138 300 -200 Descending Montreal Center

Login

Don't have an account? Register now (free) for customized features, flight alerts, and more!